createdAt,value
2017-09-02T00:00:17.872Z,73
2017-09-02T00:00:43.976Z,72.72
2017-09-02T00:01:10.083Z,73
2017-09-02T00:01:36.215Z,72.81
2017-09-02T00:02:02.327Z,73
2017-09-02T00:02:28.439Z,73
2017-09-02T00:02:54.544Z,72.81
2017-09-02T00:03:20.658Z,73.3
2017-09-02T00:03:46.762Z,73.68
2017-09-02T00:04:12.874Z,73.39
2017-09-02T00:04:38.983Z,73.39
2017-09-02T00:05:05.089Z,73.3
2017-09-02T00:05:31.194Z,73.58
2017-09-02T00:05:57.310Z,73.39
2017-09-02T00:06:23.415Z,73.77
2017-09-02T00:06:49.544Z,73.87
2017-09-02T00:07:15.649Z,73.39
2017-09-02T00:07:41.760Z,73.58
2017-09-02T00:08:07.874Z,73.58
2017-09-02T00:08:33.977Z,73.58
2017-09-02T00:09:00.084Z,73.77
2017-09-02T00:09:26.195Z,73.77
2017-09-02T00:09:52.299Z,73.3
2017-09-02T00:10:18.416Z,73.77
2017-09-02T00:10:44.525Z,73.58
2017-09-02T00:11:10.633Z,73.58
2017-09-02T00:11:36.742Z,73.39
2017-09-02T00:12:02.866Z,73.39
2017-09-02T00:12:28.973Z,73.97
2017-09-02T00:12:55.085Z,73.58
2017-09-02T00:13:21.191Z,73.58
2017-09-02T00:13:47.299Z,73.68
2017-09-02T00:14:13.414Z,73.58
2017-09-02T00:14:39.518Z,73.58
2017-09-02T00:15:05.625Z,73.49
2017-09-02T00:15:31.740Z,73.68
2017-09-02T00:15:57.866Z,73.58
2017-09-02T00:16:23.975Z,73.68
2017-09-02T00:16:50.089Z,73.68
2017-09-02T00:17:16.198Z,73.49
2017-09-02T00:17:42.296Z,73.58
2017-09-02T00:18:08.405Z,73.58
2017-09-02T00:18:34.511Z,73.77
2017-09-02T00:19:00.619Z,73.58
2017-09-02T00:19:26.729Z,73.39
2017-09-02T00:19:52.837Z,73.1
2017-09-02T00:20:18.952Z,73.49
2017-09-02T00:20:45.055Z,73.49
2017-09-02T00:21:11.164Z,73.39
2017-09-02T00:21:37.281Z,73.58
2017-09-02T00:22:03.386Z,73.58
2017-09-02T00:22:29.497Z,73.58
2017-09-02T00:22:55.601Z,73.49
2017-09-02T00:23:21.707Z,73.58
2017-09-02T00:23:47.815Z,73.58
2017-09-02T00:24:13.924Z,73.58
2017-09-02T00:24:40.030Z,73.87
2017-09-02T00:25:06.141Z,73.87
2017-09-02T00:25:32.250Z,73.58
2017-09-02T00:25:58.360Z,73.97
2017-09-02T00:26:24.461Z,73.87
2017-09-02T00:26:50.577Z,73.97
2017-09-02T00:27:16.681Z,73.97
2017-09-02T00:27:42.793Z,73.77
2017-09-02T00:28:08.906Z,73.49
2017-09-02T00:28:35.009Z,73.39
2017-09-02T00:29:01.116Z,73.49
2017-09-02T00:29:27.233Z,73.39
2017-09-02T00:29:53.342Z,73.77
2017-09-02T00:30:19.445Z,73.49
2017-09-02T00:30:45.558Z,73.49
2017-09-02T00:31:11.661Z,73.39
2017-09-02T00:31:37.769Z,73.39
2017-09-02T00:32:03.880Z,73.58
2017-09-02T00:32:29.988Z,73.49
2017-09-02T00:32:56.102Z,73.68
2017-09-02T00:33:22.206Z,73.77
2017-09-02T00:33:48.321Z,73.58
2017-09-02T00:34:14.429Z,73.58
2017-09-02T00:34:40.533Z,73.49
2017-09-02T00:35:06.661Z,73.68
2017-09-02T00:35:32.782Z,74.54
2017-09-02T00:35:58.890Z,74.44
2017-09-02T00:36:25.002Z,74.16
2017-09-02T00:36:51.107Z,74.35
2017-09-02T00:37:17.220Z,74.16
2017-09-02T00:37:43.331Z,74.06
2017-09-02T00:38:09.456Z,74.06
2017-09-02T00:38:35.567Z,74.06
2017-09-02T00:39:01.674Z,74.64
2017-09-02T00:39:27.783Z,74.35
2017-09-02T00:39:53.889Z,74.16
2017-09-02T00:40:19.995Z,74.35
2017-09-02T00:40:46.127Z,74.35
2017-09-02T00:41:12.233Z,74.54
2017-09-02T00:41:38.348Z,74.44
2017-09-02T00:42:04.452Z,74.54
2017-09-02T00:42:30.579Z,74.16
2017-09-02T00:42:56.704Z,74.64
2017-09-02T00:43:22.807Z,74.64
2017-09-02T00:43:48.922Z,74.73
2017-09-02T00:44:15.026Z,74.83
2017-09-02T00:44:41.133Z,74.83
2017-09-02T00:45:07.243Z,74.73
2017-09-02T00:45:33.350Z,75.12
2017-09-02T00:45:59.459Z,74.93
2017-09-02T00:46:25.574Z,74.73
2017-09-02T00:46:51.683Z,74.73
2017-09-02T00:47:17.789Z,74.54
2017-09-02T00:47:43.898Z,74.73
2017-09-02T00:48:10.007Z,74.44
2017-09-02T00:48:36.112Z,74.44
2017-09-02T00:49:02.224Z,74.54
2017-09-02T00:49:28.330Z,74.64
2017-09-02T00:49:54.437Z,74.64
2017-09-02T00:50:20.550Z,74.73
2017-09-02T00:50:46.654Z,74.73
2017-09-02T00:51:12.769Z,74.73
2017-09-02T00:51:38.873Z,74.83
2017-09-02T00:52:04.989Z,74.44
2017-09-02T00:52:31.089Z,74.83
2017-09-02T00:52:57.203Z,74.83
2017-09-02T00:53:23.311Z,74.44
2017-09-02T00:53:49.416Z,74.54
2017-09-02T00:54:15.529Z,74.44
2017-09-02T00:54:41.633Z,74.54
2017-09-02T00:55:07.739Z,74.35
2017-09-02T00:55:33.850Z,74.35
2017-09-02T00:55:59.976Z,74.54
2017-09-02T00:56:26.128Z,74.54
2017-09-02T00:56:52.214Z,74.35
2017-09-02T00:57:18.328Z,74.35
2017-09-02T00:57:44.431Z,74.35
2017-09-02T00:58:10.545Z,74.26
2017-09-02T00:58:36.655Z,74.06
2017-09-02T00:59:02.759Z,74.54
2017-09-02T00:59:28.873Z,74.35
2017-09-02T00:59:54.999Z,74.44
2017-09-02T01:00:21.107Z,74.54
2017-09-02T01:00:47.211Z,73.68
2017-09-02T01:01:13.317Z,73.77
2017-09-02T01:01:39.428Z,73.58
2017-09-02T01:02:05.537Z,73.58
2017-09-02T01:02:31.652Z,73.58
2017-09-02T01:02:57.761Z,73.68
2017-09-02T01:03:23.865Z,73.77
2017-09-02T01:03:49.971Z,73.87
2017-09-02T01:04:16.083Z,73.97
2017-09-02T01:04:42.188Z,74.44
2017-09-02T01:05:08.301Z,74.06
2017-09-02T01:05:34.405Z,73.97
2017-09-02T01:06:00.516Z,74.06
2017-09-02T01:06:26.637Z,74.06
2017-09-02T01:06:52.751Z,74.06
2017-09-02T01:07:18.861Z,74.06
2017-09-02T01:07:44.967Z,74.73
2017-09-02T01:08:11.073Z,74.64
2017-09-02T01:08:37.187Z,74.73
2017-09-02T01:09:03.296Z,74.26
2017-09-02T01:09:29.402Z,74.26
2017-09-02T01:09:55.518Z,74.44
2017-09-02T01:10:21.621Z,74.44
2017-09-02T01:10:47.734Z,74.35
2017-09-02T01:11:13.842Z,74.16
2017-09-02T01:11:39.948Z,74.35
2017-09-02T01:12:06.058Z,74.06
2017-09-02T01:12:32.161Z,73.87
2017-09-02T01:12:58.278Z,74.06
2017-09-02T01:13:24.381Z,74.73
2017-09-02T01:13:50.504Z,74.83
2017-09-02T01:14:16.610Z,74.64
2017-09-02T01:14:42.730Z,74.64
2017-09-02T01:15:08.840Z,74.73
2017-09-02T01:15:34.947Z,75.02
2017-09-02T01:16:01.047Z,74.35
2017-09-02T01:16:27.160Z,75.12
2017-09-02T01:16:53.265Z,75.12
2017-09-02T01:17:19.376Z,74.93
2017-09-02T01:17:45.491Z,75.21
2017-09-02T01:18:11.604Z,75.12
2017-09-02T01:18:37.711Z,75.31
2017-09-02T01:19:03.821Z,74.64
2017-09-02T01:19:29.924Z,74.93
2017-09-02T01:19:56.036Z,75.02
2017-09-02T01:20:22.146Z,75.12
2017-09-02T01:20:48.254Z,74.93
2017-09-02T01:21:14.360Z,74.83
2017-09-02T01:21:40.476Z,74.93
2017-09-02T01:22:06.581Z,74.93
2017-09-02T01:22:32.700Z,74.93
2017-09-02T01:22:58.805Z,75.12
2017-09-02T01:23:24.910Z,75.12
2017-09-02T01:23:51.023Z,75.31
2017-09-02T01:24:17.144Z,75.12
2017-09-02T01:24:43.250Z,75.12
2017-09-02T01:25:09.362Z,75.02
2017-09-02T01:25:35.467Z,75.12
2017-09-02T01:26:01.598Z,75.02
2017-09-02T01:26:27.709Z,75.12
2017-09-02T01:26:53.812Z,74.83
2017-09-02T01:27:19.920Z,75.21
2017-09-02T01:27:46.035Z,75.02
2017-09-02T01:28:12.145Z,75.31
2017-09-02T01:28:38.250Z,75.31
2017-09-02T01:29:04.364Z,75.5
2017-09-02T01:29:30.472Z,75.31
2017-09-02T01:29:56.578Z,75.7
2017-09-02T01:30:22.700Z,75.4
2017-09-02T01:30:48.814Z,75.5
2017-09-02T01:31:14.919Z,75.31
2017-09-02T01:31:41.022Z,75.21
2017-09-02T01:32:07.134Z,75.6
2017-09-02T01:32:33.248Z,75.4
2017-09-02T01:32:59.353Z,75.5
2017-09-02T01:33:25.459Z,75.12
2017-09-02T01:33:51.565Z,75.12
2017-09-02T01:34:17.680Z,75.79
2017-09-02T01:34:43.785Z,75.6
2017-09-02T01:35:09.913Z,75.6
2017-09-02T01:35:36.007Z,75.4
2017-09-02T01:36:02.114Z,75.31
2017-09-02T01:36:28.226Z,75.6
2017-09-02T01:36:54.331Z,75.5
2017-09-02T01:37:20.444Z,75.5
2017-09-02T01:37:46.547Z,75.4
2017-09-02T01:38:12.670Z,75.5
2017-09-02T01:38:38.785Z,75.31
2017-09-02T01:39:04.891Z,75.79
2017-09-02T01:39:31.004Z,75.31
2017-09-02T01:39:57.112Z,75.6
2017-09-02T01:40:23.224Z,75.21
2017-09-02T01:40:49.344Z,75.21
2017-09-02T01:41:15.473Z,75.12
2017-09-02T01:41:41.580Z,75.5
2017-09-02T01:42:07.689Z,75.6
2017-09-02T01:42:33.792Z,75.6
2017-09-02T01:42:59.906Z,75.6
2017-09-02T01:43:26.009Z,75.6
2017-09-02T01:43:52.121Z,75.5
2017-09-02T01:44:18.229Z,75.5
2017-09-02T01:44:44.339Z,75.6
2017-09-02T01:45:10.447Z,75.6
2017-09-02T01:45:36.557Z,75.5
2017-09-02T01:46:02.663Z,75.5
2017-09-02T01:46:28.768Z,75.4
2017-09-02T01:46:54.890Z,75.31
2017-09-02T01:47:21.010Z,75.4
2017-09-02T01:47:47.115Z,75.4
2017-09-02T01:48:13.225Z,75.31
2017-09-02T01:48:39.351Z,75.4
2017-09-02T01:49:05.461Z,75.4
2017-09-02T01:49:31.569Z,75.21
2017-09-02T01:49:57.692Z,75.4
2017-09-02T01:50:23.806Z,75.5
2017-09-02T01:50:49.950Z,75.4
2017-09-02T01:51:16.061Z,75.31
2017-09-02T01:51:42.166Z,75.4
2017-09-02T01:52:08.282Z,75.31
2017-09-02T01:52:34.394Z,75.6
2017-09-02T01:53:00.498Z,75.7
2017-09-02T01:53:26.621Z,75.4
2017-09-02T01:53:52.756Z,75.4
2017-09-02T01:54:18.903Z,75.4
2017-09-02T01:54:45.005Z,75.31
2017-09-02T01:55:11.121Z,75.7
2017-09-02T01:55:37.231Z,76.07
2017-09-02T01:56:03.332Z,75.79
2017-09-02T01:56:29.444Z,75.89
2017-09-02T01:56:55.576Z,75.5
2017-09-02T01:57:21.663Z,76.07
2017-09-02T01:57:47.770Z,76.17
2017-09-02T01:58:13.918Z,76.56
2017-09-02T01:58:40.038Z,76.04
2017-09-02T01:59:06.141Z,76.27
2017-09-02T01:59:32.273Z,76.46
2017-09-02T01:59:58.356Z,76.46
2017-09-02T02:00:24.468Z,76.17
2017-09-02T02:00:50.571Z,76.27
2017-09-02T02:01:16.671Z,76.17
2017-09-02T02:01:42.784Z,75.79
2017-09-02T02:02:08.970Z,75.5
2017-09-02T02:02:35.363Z,75.79
2017-09-02T02:03:01.782Z,76.37
2017-09-02T02:03:27.958Z,76.07
2017-09-02T02:03:54.069Z,76.42
2017-09-02T02:04:20.177Z,76.37
2017-09-02T02:04:46.282Z,76.65
2017-09-02T02:05:12.395Z,76.65
2017-09-02T02:05:38.509Z,76.65
2017-09-02T02:06:04.619Z,76.46
2017-09-02T02:06:30.754Z,75.89
2017-09-02T02:06:56.858Z,76.07
2017-09-02T02:07:22.975Z,75.89
2017-09-02T02:07:49.157Z,76.17
2017-09-02T02:08:15.407Z,76.14
2017-09-02T02:08:41.832Z,76.37
2017-09-02T02:09:08.314Z,76.56
2017-09-02T02:09:34.634Z,76.37
2017-09-02T02:10:00.764Z,76.42
2017-09-02T02:10:27.008Z,76.37
2017-09-02T02:10:53.035Z,76.37
2017-09-02T02:11:19.149Z,76.07
2017-09-02T02:11:45.261Z,76.37
2017-09-02T02:12:11.368Z,76.46
2017-09-02T02:12:37.471Z,76.32
2017-09-02T02:13:03.584Z,76.37
2017-09-02T02:13:29.693Z,76.52
2017-09-02T02:13:55.806Z,76.17
2017-09-02T02:14:21.931Z,76.27
2017-09-02T02:14:48.035Z,76.56
2017-09-02T02:15:14.151Z,75.89
2017-09-02T02:15:40.258Z,76.17
2017-09-02T02:16:06.362Z,76.27
2017-09-02T02:16:32.477Z,76.46
2017-09-02T02:16:58.602Z,76.07
2017-09-02T02:17:24.709Z,76.37
2017-09-02T02:17:50.817Z,76.07
2017-09-02T02:18:16.930Z,76.65
2017-09-02T02:18:43.035Z,75.98
2017-09-02T02:19:09.152Z,75.98
2017-09-02T02:19:35.260Z,76.46
2017-09-02T02:20:01.370Z,76.07
2017-09-02T02:20:27.485Z,76.37
2017-09-02T02:20:53.585Z,75.79
2017-09-02T02:21:19.691Z,76.27
2017-09-02T02:21:45.805Z,76.27
2017-09-02T02:22:11.913Z,76.65
2017-09-02T02:22:38.022Z,76.07
2017-09-02T02:23:04.133Z,76.07
2017-09-02T02:23:30.243Z,76.17
2017-09-02T02:23:56.352Z,76.37
2017-09-02T02:24:22.464Z,76.46
2017-09-02T02:24:48.568Z,76.37
2017-09-02T02:25:14.676Z,76.46
2017-09-02T02:25:40.784Z,76.27
2017-09-02T02:26:06.894Z,76.17
2017-09-02T02:26:33.006Z,76.17
2017-09-02T02:26:59.112Z,76.17
2017-09-02T02:27:25.222Z,75.98
2017-09-02T02:27:51.346Z,76.07
2017-09-02T02:28:17.457Z,76.17
2017-09-02T02:28:43.560Z,76.37
2017-09-02T02:29:09.675Z,76.37
2017-09-02T02:29:35.784Z,76.27
2017-09-02T02:30:01.895Z,75.89
2017-09-02T02:30:28.008Z,75.98
2017-09-02T02:30:54.116Z,76.46
2017-09-02T02:31:20.221Z,76.04
2017-09-02T02:31:46.334Z,76.46
2017-09-02T02:32:12.458Z,76.46
2017-09-02T02:32:38.566Z,76.17
2017-09-02T02:33:04.681Z,76.14
2017-09-02T02:33:30.786Z,76.46
2017-09-02T02:33:56.898Z,75.85
2017-09-02T02:34:23.032Z,76.46
2017-09-02T02:34:49.135Z,76.37
2017-09-02T02:35:15.243Z,76.32
2017-09-02T02:35:41.357Z,76.27
2017-09-02T02:36:07.461Z,76.42
2017-09-02T02:36:33.574Z,76.46
2017-09-02T02:36:59.679Z,76.46
2017-09-02T02:37:25.791Z,76.46
2017-09-02T02:37:51.921Z,76.27
2017-09-02T02:38:18.024Z,76.07
2017-09-02T02:38:44.129Z,76.37
2017-09-02T02:39:10.241Z,76.46
2017-09-02T02:39:36.353Z,76.37
2017-09-02T02:40:02.457Z,76.07
2017-09-02T02:40:28.564Z,76.27
2017-09-02T02:40:54.674Z,76.27
2017-09-02T02:41:20.783Z,76.27
2017-09-02T02:41:46.908Z,76.42
2017-09-02T02:42:13.013Z,76.81
2017-09-02T02:42:39.132Z,76.75
2017-09-02T02:43:05.240Z,76.65
2017-09-02T02:43:31.347Z,76.56
2017-09-02T02:43:57.462Z,76.65
2017-09-02T02:44:23.572Z,76.37
2017-09-02T02:44:49.672Z,76.46
2017-09-02T02:45:15.787Z,76.46
2017-09-02T02:45:41.892Z,76.07
2017-09-02T02:46:08.001Z,76.27
2017-09-02T02:46:34.109Z,76.27
2017-09-02T02:47:00.209Z,76.37
2017-09-02T02:47:26.321Z,76.17
2017-09-02T02:47:52.425Z,76.27
2017-09-02T02:48:18.532Z,76.23
2017-09-02T02:48:44.653Z,76.46
2017-09-02T02:49:10.756Z,76.84
2017-09-02T02:49:36.869Z,76.56
2017-09-02T02:50:02.978Z,76.32
2017-09-02T02:50:29.085Z,76.81
2017-09-02T02:50:55.191Z,76.52
2017-09-02T02:51:21.330Z,76.46
2017-09-02T02:51:47.453Z,76.42
2017-09-02T02:52:13.557Z,76.42
2017-09-02T02:52:39.682Z,76.17
2017-09-02T02:53:05.795Z,76.27
2017-09-02T02:53:31.904Z,76.27
2017-09-02T02:53:58.023Z,76.37
2017-09-02T02:54:24.119Z,76.27
2017-09-02T02:54:50.231Z,76.37
2017-09-02T02:55:16.356Z,76.37
2017-09-02T02:55:42.470Z,76.56
2017-09-02T02:56:08.575Z,76.62
2017-09-02T02:56:34.689Z,76.27
2017-09-02T02:57:00.800Z,76.84
2017-09-02T02:57:26.908Z,76.75
2017-09-02T02:57:53.036Z,77.04
2017-09-02T02:58:19.144Z,76.65
2017-09-02T02:58:45.253Z,76.62
2017-09-02T02:59:11.357Z,76.94
2017-09-02T02:59:37.472Z,76.84
2017-09-02T03:00:03.579Z,76.37
2017-09-02T03:00:29.683Z,76.46
2017-09-02T03:00:55.793Z,76.84
2017-09-02T03:01:21.902Z,76.65
2017-09-02T03:01:48.014Z,76.56
2017-09-02T03:02:14.124Z,76.75
2017-09-02T03:02:40.235Z,76.65
2017-09-02T03:03:06.343Z,76.37
2017-09-02T03:03:32.457Z,76.65
2017-09-02T03:03:58.563Z,76.46
2017-09-02T03:04:24.674Z,76.52
2017-09-02T03:04:50.781Z,76.32
2017-09-02T03:05:16.901Z,76.37
2017-09-02T03:05:43.010Z,76.81
2017-09-02T03:06:09.113Z,76.81
2017-09-02T03:06:35.220Z,76.84
2017-09-02T03:07:01.324Z,76.9
2017-09-02T03:07:27.456Z,77.09
2017-09-02T03:07:53.561Z,77
2017-09-02T03:08:19.693Z,76.9
2017-09-02T03:08:45.804Z,76.62
2017-09-02T03:09:11.917Z,76.9
2017-09-02T03:09:38.023Z,76.52
2017-09-02T03:10:04.127Z,76.71
2017-09-02T03:10:30.242Z,76.94
2017-09-02T03:10:56.350Z,76.94
2017-09-02T03:11:22.460Z,76.46
2017-09-02T03:11:48.572Z,76.62
2017-09-02T03:12:14.671Z,76.14
2017-09-02T03:12:40.782Z,76.23
2017-09-02T03:13:06.886Z,76.62
2017-09-02T03:13:32.999Z,76.65
2017-09-02T03:13:59.104Z,76.75
2017-09-02T03:14:25.218Z,76.56
2017-09-02T03:14:51.345Z,76.23
2017-09-02T03:15:17.464Z,76.32
2017-09-02T03:15:43.577Z,76.62
2017-09-02T03:16:09.687Z,76.42
2017-09-02T03:16:35.800Z,76.9
2017-09-02T03:17:01.905Z,77
2017-09-02T03:17:28.010Z,77
2017-09-02T03:17:54.124Z,76.9
2017-09-02T03:18:20.229Z,77.19
2017-09-02T03:18:46.339Z,77.29
2017-09-02T03:19:12.452Z,77.48
2017-09-02T03:19:38.563Z,77.38
2017-09-02T03:20:04.668Z,77.29
2017-09-02T03:20:30.775Z,77.29
2017-09-02T03:20:56.892Z,77.48
2017-09-02T03:21:22.995Z,77.38
2017-09-02T03:21:49.104Z,77
2017-09-02T03:22:15.220Z,77.19
2017-09-02T03:22:41.326Z,77.48
2017-09-02T03:23:07.440Z,77.38
2017-09-02T03:23:33.544Z,77.48
2017-09-02T03:23:59.651Z,77.29
2017-09-02T03:24:25.791Z,77.19
2017-09-02T03:24:51.893Z,76.32
2017-09-02T03:25:18.016Z,76.42
2017-09-02T03:25:44.129Z,77
2017-09-02T03:26:10.239Z,76.62
2017-09-02T03:26:36.343Z,76.71
2017-09-02T03:27:02.453Z,76.62
2017-09-02T03:27:28.558Z,76.81
2017-09-02T03:27:54.665Z,76.62
2017-09-02T03:28:20.782Z,76.81
2017-09-02T03:28:46.890Z,76.81
2017-09-02T03:29:12.992Z,76.81
2017-09-02T03:29:39.109Z,77.09
2017-09-02T03:30:05.216Z,76.62
2017-09-02T03:30:31.320Z,76.71
2017-09-02T03:30:57.430Z,76.71
2017-09-02T03:31:23.540Z,76.81
2017-09-02T03:31:49.651Z,76.42
2017-09-02T03:32:15.753Z,76.71
2017-09-02T03:32:41.861Z,76.52
2017-09-02T03:33:07.972Z,76.71
2017-09-02T03:33:34.076Z,76.52
2017-09-02T03:34:00.192Z,76.32
2017-09-02T03:34:26.300Z,77.38
2017-09-02T03:34:52.415Z,77.19
2017-09-02T03:35:18.518Z,77.19
2017-09-02T03:35:44.631Z,77.58
2017-09-02T03:36:10.742Z,77.48
2017-09-02T03:36:36.846Z,77.29
2017-09-02T03:37:02.961Z,76.71
2017-09-02T03:37:29.064Z,76.71
2017-09-02T03:37:55.171Z,76.62
2017-09-02T03:38:21.286Z,76.9
2017-09-02T03:38:47.399Z,77
2017-09-02T03:39:13.502Z,76.62
2017-09-02T03:39:39.610Z,76.81
2017-09-02T03:40:05.724Z,76.71
2017-09-02T03:40:31.827Z,76.81
2017-09-02T03:40:57.944Z,76.62
2017-09-02T03:41:24.062Z,76.71
2017-09-02T03:41:50.176Z,77.19
2017-09-02T03:42:16.286Z,77.38
2017-09-02T03:42:42.394Z,76.71
2017-09-02T03:43:08.540Z,76.62
2017-09-02T03:43:34.648Z,76.81
2017-09-02T03:44:00.759Z,76.42
2017-09-02T03:44:26.867Z,77.19
2017-09-02T03:44:52.971Z,77.29
2017-09-02T03:45:19.085Z,76.32
2017-09-02T03:45:45.197Z,76.71
2017-09-02T03:46:11.302Z,76.71
2017-09-02T03:46:37.405Z,76.62
2017-09-02T03:47:03.519Z,77.38
2017-09-02T03:47:29.628Z,77.29
2017-09-02T03:47:55.735Z,77.19
2017-09-02T03:48:21.866Z,77.38
2017-09-02T03:48:47.979Z,77.38
2017-09-02T03:49:14.081Z,77.29
2017-09-02T03:49:40.195Z,77.38
2017-09-02T03:50:06.302Z,77.29
2017-09-02T03:50:32.414Z,77.48
2017-09-02T03:50:58.532Z,77.09
2017-09-02T03:51:24.647Z,77.29
2017-09-02T03:51:50.751Z,77.29
2017-09-02T03:52:16.858Z,77.19
2017-09-02T03:52:42.970Z,77.38
2017-09-02T03:53:09.082Z,77.38
2017-09-02T03:53:35.193Z,77.29
2017-09-02T03:54:01.302Z,77.29
2017-09-02T03:54:27.406Z,77.29
2017-09-02T03:54:53.519Z,77.38
2017-09-02T03:55:19.631Z,77.29
2017-09-02T03:55:45.734Z,77.09
2017-09-02T03:56:11.847Z,77.09
2017-09-02T03:56:37.953Z,77.09
2017-09-02T03:57:04.063Z,77.09
2017-09-02T03:57:30.170Z,77.19
2017-09-02T03:57:56.279Z,77.09
2017-09-02T03:58:22.376Z,76.9
2017-09-02T03:58:48.482Z,77.19
2017-09-02T03:59:14.596Z,77
2017-09-02T03:59:40.705Z,77.58
2017-09-02T04:00:06.818Z,77.19
2017-09-02T04:00:32.924Z,77.29
2017-09-02T04:00:59.029Z,77.09
2017-09-02T04:01:25.148Z,77.29
2017-09-02T04:01:51.249Z,77.38
2017-09-02T04:02:17.363Z,77.38
2017-09-02T04:02:43.471Z,77.19
2017-09-02T04:03:09.582Z,77.09
2017-09-02T04:03:35.703Z,77.19
2017-09-02T04:04:01.808Z,77.09
2017-09-02T04:04:27.914Z,77.19
2017-09-02T04:04:54.020Z,77.09
2017-09-02T04:05:20.135Z,76.9
2017-09-02T04:05:46.242Z,76.9
2017-09-02T04:06:12.378Z,76.9
2017-09-02T04:06:38.506Z,77.09
2017-09-02T04:07:04.617Z,77.19
2017-09-02T04:07:30.726Z,77.09
2017-09-02T04:07:56.836Z,77.19
2017-09-02T04:08:22.943Z,77.19
2017-09-02T04:08:49.046Z,77.09
2017-09-02T04:09:15.177Z,77.09
2017-09-02T04:09:41.285Z,77.09
2017-09-02T04:10:07.393Z,77.58
2017-09-02T04:10:33.507Z,77.67
2017-09-02T04:10:59.612Z,77.67
2017-09-02T04:11:25.723Z,77.67
2017-09-02T04:11:51.856Z,77.67
2017-09-02T04:12:17.961Z,77.67
2017-09-02T04:12:44.075Z,77.67
2017-09-02T04:13:10.179Z,77.58
2017-09-02T04:13:36.287Z,77.58
2017-09-02T04:14:02.396Z,77.58
2017-09-02T04:14:28.508Z,77.95
2017-09-02T04:14:54.612Z,78.15
2017-09-02T04:15:20.724Z,78.34
2017-09-02T04:15:46.829Z,77.48
2017-09-02T04:16:12.937Z,77.86
2017-09-02T04:16:39.051Z,77.86
2017-09-02T04:17:05.154Z,77.67
2017-09-02T04:17:31.285Z,77.48
2017-09-02T04:17:57.392Z,77.58
2017-09-02T04:18:23.504Z,77.58
2017-09-02T04:18:49.607Z,77.86
2017-09-02T04:19:15.720Z,77.95
2017-09-02T04:19:41.831Z,78.05
2017-09-02T04:20:07.935Z,77.76
2017-09-02T04:20:34.046Z,77.86
2017-09-02T04:21:00.153Z,78.05
2017-09-02T04:21:26.266Z,78.44
2017-09-02T04:21:52.368Z,78.53
2017-09-02T04:22:18.482Z,78.25
2017-09-02T04:22:44.586Z,78.15
2017-09-02T04:23:10.693Z,78.15
2017-09-02T04:23:36.796Z,78.15
2017-09-02T04:24:02.909Z,77.95
2017-09-02T04:24:29.034Z,77.86
2017-09-02T04:24:55.146Z,78.11
2017-09-02T04:25:21.272Z,78.15
2017-09-02T04:25:47.376Z,78.15
2017-09-02T04:26:13.489Z,78.05
2017-09-02T04:26:39.593Z,78.05
2017-09-02T04:27:05.706Z,78.05
2017-09-02T04:27:31.814Z,78.05
2017-09-02T04:27:57.922Z,77.86
2017-09-02T04:28:24.037Z,77.95
2017-09-02T04:28:50.137Z,77.92
2017-09-02T04:29:16.257Z,78.02
2017-09-02T04:29:42.370Z,77.86
2017-09-02T04:30:08.481Z,78.02
2017-09-02T04:30:34.593Z,77.76
2017-09-02T04:31:00.702Z,78.34
2017-09-02T04:31:26.808Z,77.95
2017-09-02T04:31:52.912Z,77.76
2017-09-02T04:32:19.024Z,77.76
2017-09-02T04:32:45.128Z,77.95
2017-09-02T04:33:11.241Z,78.11
2017-09-02T04:33:37.350Z,77.67
2017-09-02T04:34:03.457Z,77.82
2017-09-02T04:34:29.571Z,78.02
2017-09-02T04:34:55.674Z,78.63
2017-09-02T04:35:21.790Z,78.15
2017-09-02T04:35:47.897Z,78.11
2017-09-02T04:36:14.001Z,78.82
2017-09-02T04:36:40.113Z,78.78
2017-09-02T04:37:06.218Z,78.69
2017-09-02T04:37:32.330Z,78.69
2017-09-02T04:37:58.436Z,78.05
2017-09-02T04:38:24.550Z,78.69
2017-09-02T04:38:50.660Z,78.15
2017-09-02T04:39:16.763Z,77.82
2017-09-02T04:39:42.879Z,78.34
2017-09-02T04:40:08.985Z,78.15
2017-09-02T04:40:35.109Z,77.86
2017-09-02T04:41:01.220Z,77.86
2017-09-02T04:41:27.326Z,78.11
2017-09-02T04:41:53.439Z,78.69
2017-09-02T04:42:19.552Z,78.2
2017-09-02T04:42:45.662Z,77.92
2017-09-02T04:43:11.782Z,77.82
2017-09-02T04:43:37.890Z,78.69
2017-09-02T04:44:03.992Z,78.69
2017-09-02T04:44:30.105Z,78.82
2017-09-02T04:44:56.236Z,78.2
2017-09-02T04:45:22.361Z,78.02
2017-09-02T04:45:48.469Z,78.49
2017-09-02T04:46:14.577Z,78.2
2017-09-02T04:46:40.692Z,78.69
2017-09-02T04:47:06.796Z,78.59
2017-09-02T04:47:32.925Z,78.11
2017-09-02T04:47:59.051Z,78.69
2017-09-02T04:48:25.157Z,78.59
2017-09-02T04:48:51.257Z,78.2
2017-09-02T04:49:17.364Z,78.4
2017-09-02T04:49:43.478Z,78.49
2017-09-02T04:50:09.585Z,78.59
2017-09-02T04:50:35.690Z,78.49
2017-09-02T04:51:01.807Z,78.69
2017-09-02T04:51:27.912Z,78.49
2017-09-02T04:51:54.023Z,78.78
2017-09-02T04:52:20.126Z,78.2
2017-09-02T04:52:46.236Z,78.02
2017-09-02T04:53:12.348Z,78.49
2017-09-02T04:53:38.451Z,78.3
2017-09-02T04:54:04.564Z,78.59
2017-09-02T04:54:30.693Z,78.78
2017-09-02T04:54:56.796Z,78.88
2017-09-02T04:55:22.903Z,78.69
2017-09-02T04:55:49.015Z,79.16
2017-09-02T04:56:15.119Z,78.88
2017-09-02T04:56:41.230Z,78.97
2017-09-02T04:57:07.346Z,78.78
2017-09-02T04:57:33.467Z,78.88
2017-09-02T04:57:59.581Z,78.88
2017-09-02T04:58:25.685Z,78.78
2017-09-02T04:58:51.792Z,78.78
2017-09-02T04:59:17.903Z,78.88
2017-09-02T04:59:44.023Z,79.16
2017-09-02T05:00:10.120Z,79.16
2017-09-02T05:00:36.225Z,79.26
2017-09-02T05:01:02.339Z,79.07
2017-09-02T05:01:28.443Z,78.97
2017-09-02T05:01:54.555Z,79.07
2017-09-02T05:02:20.664Z,79.16
2017-09-02T05:02:46.770Z,79.07
2017-09-02T05:03:12.875Z,79.07
2017-09-02T05:03:38.986Z,78.97
2017-09-02T05:04:05.094Z,79.26
2017-09-02T05:04:31.207Z,79.07
2017-09-02T05:04:57.317Z,79.36
2017-09-02T05:05:23.423Z,79.26
2017-09-02T05:05:49.542Z,79.07
2017-09-02T05:06:15.642Z,79.16
2017-09-02T05:06:41.749Z,79.16
2017-09-02T05:07:07.856Z,79.07
2017-09-02T05:07:33.972Z,79.36
2017-09-02T05:08:00.076Z,79.26
2017-09-02T05:08:26.179Z,79.16
2017-09-02T05:08:52.286Z,79.55
2017-09-02T05:09:18.393Z,79.26
2017-09-02T05:09:44.510Z,79.26
2017-09-02T05:10:10.620Z,79.26
2017-09-02T05:10:36.727Z,79.55
2017-09-02T05:11:02.838Z,79.55
2017-09-02T05:11:28.946Z,79.74
2017-09-02T05:11:55.057Z,79.26
2017-09-02T05:12:21.160Z,79.45
2017-09-02T05:12:47.266Z,79.64
2017-09-02T05:13:13.380Z,79.64
2017-09-02T05:13:39.485Z,79.74
2017-09-02T05:14:05.592Z,79.26
2017-09-02T05:14:31.702Z,79.26
2017-09-02T05:14:57.825Z,79.55
2017-09-02T05:15:23.954Z,79.16
2017-09-02T05:15:50.070Z,79.55
2017-09-02T05:16:16.178Z,79.45
2017-09-02T05:16:42.300Z,79.93
2017-09-02T05:17:08.387Z,79.74
2017-09-02T05:17:34.501Z,79.45
2017-09-02T05:18:00.603Z,79.55
2017-09-02T05:18:26.716Z,79.26
2017-09-02T05:18:52.829Z,79.45
2017-09-02T05:19:18.931Z,79.45
2017-09-02T05:19:45.045Z,79.26
2017-09-02T05:20:11.153Z,79.36
2017-09-02T05:20:37.256Z,79.07
2017-09-02T05:21:03.371Z,79.26
2017-09-02T05:21:29.477Z,79.07
2017-09-02T05:21:55.589Z,79.93
2017-09-02T05:22:21.692Z,78.78
2017-09-02T05:22:47.807Z,79.55
2017-09-02T05:23:13.916Z,79.26
2017-09-02T05:23:40.024Z,79.36
2017-09-02T05:24:06.134Z,79.55
2017-09-02T05:24:32.258Z,79.45
2017-09-02T05:24:58.367Z,79.45
2017-09-02T05:25:24.470Z,79.74
2017-09-02T05:25:50.582Z,78.88
2017-09-02T05:26:16.686Z,79.16
2017-09-02T05:26:42.792Z,78.97
2017-09-02T05:27:08.905Z,79.07
2017-09-02T05:27:35.016Z,79.64
2017-09-02T05:28:01.117Z,79.36
2017-09-02T05:28:27.254Z,79.55
2017-09-02T05:28:53.386Z,79.26
2017-09-02T05:29:19.477Z,79.26
2017-09-02T05:29:45.585Z,79.36
2017-09-02T05:30:11.690Z,79.36
2017-09-02T05:30:37.798Z,79.26
2017-09-02T05:31:03.906Z,79.36
2017-09-02T05:31:30.014Z,79.26
2017-09-02T05:31:56.117Z,79.74
2017-09-02T05:32:22.232Z,79.55
2017-09-02T05:32:48.342Z,79.36
2017-09-02T05:33:14.445Z,79.36
2017-09-02T05:33:40.560Z,79.16
2017-09-02T05:34:06.671Z,79.45
2017-09-02T05:34:32.773Z,79.16
2017-09-02T05:34:58.883Z,79.07
2017-09-02T05:35:24.985Z,79.16
2017-09-02T05:35:51.097Z,79.07
2017-09-02T05:36:17.202Z,79.26
2017-09-02T05:36:43.313Z,78.97
2017-09-02T05:37:09.443Z,78.97
2017-09-02T05:37:35.552Z,78.88